sensor_id;sensor_type;location;lat;lon;timestamp;pressure;altitude;pressure_sealevel;temperature;humidity
65897;BME280;52677;50.898;10.854;2023-12-07T00:01:02;98567.06;;;0.46;100.00
65897;BME280;52677;50.898;10.854;2023-12-07T00:03:03;98567.06;;;0.46;100.00
65897;BME280;52677;50.898;10.854;2023-12-07T00:05:07;98564.16;;;0.43;100.00
65897;BME280;52677;50.898;10.854;2023-12-07T00:07:08;98567.06;;;0.46;100.00
65897;BME280;52677;50.898;10.854;2023-12-07T00:09:08;98565.13;;;0.47;100.00
65897;BME280;52677;50.898;10.854;2023-12-07T00:11:08;98557.97;;;0.51;100.00
65897;BME280;52677;50.898;10.854;2023-12-07T00:13:09;98564.03;;;0.48;100.00
65897;BME280;52677;50.898;10.854;2023-12-07T00:15:09;98574.00;;;0.52;100.00
65897;BME280;52677;50.898;10.854;2023-12-07T00:17:09;98570.16;;;0.53;100.00
65897;BME280;52677;50.898;10.854;2023-12-07T00:19:10;98571.50;;;0.65;100.00
65897;BME280;52677;50.898;10.854;2023-12-07T00:21:10;98572.50;;;0.69;100.00
65897;BME280;52677;50.898;10.854;2023-12-07T00:23:11;98575.53;;;0.67;100.00
65897;BME280;52677;50.898;10.854;2023-12-07T00:25:12;98574.00;;;0.75;100.00
65897;BME280;52677;50.898;10.854;2023-12-07T00:27:12;98573.34;;;0.78;100.00
65897;BME280;52677;50.898;10.854;2023-12-07T00:29:12;98588.41;;;0.75;100.00
65897;BME280;52677;50.898;10.854;2023-12-07T00:31:13;98575.75;;;0.79;100.00
65897;BME280;52677;50.898;10.854;2023-12-07T00:33:13;98581.09;;;0.84;100.00
65897;BME280;52677;50.898;10.854;2023-12-07T00:35:13;98588.59;;;0.79;100.00
65897;BME280;52677;50.898;10.854;2023-12-07T00:37:14;98593.72;;;0.80;100.00
65897;BME280;52677;50.898;10.854;2023-12-07T00:39:15;98593.41;;;0.82;100.00
65897;BME280;52677;50.898;10.854;2023-12-07T00:41:17;98592.91;;;0.80;100.00
65897;BME280;52677;50.898;10.854;2023-12-07T00:43:17;98587.94;;;0.82;100.00
65897;BME280;52677;50.898;10.854;2023-12-07T00:45:18;98585.06;;;0.78;100.00
65897;BME280;52677;50.898;10.854;2023-12-07T00:47:18;98589.22;;;0.76;100.00
65897;BME280;52677;50.898;10.854;2023-12-07T00:49:19;98576.50;;;0.71;100.00
65897;BME280;52677;50.898;10.854;2023-12-07T00:51:19;98602.94;;;0.71;100.00
65897;BME280;52677;50.898;10.854;2023-12-07T00:53:19;98591.69;;;0.64;100.00
65897;BME280;52677;50.898;10.854;2023-12-07T00:55:20;98604.00;;;0.61;100.00
65897;BME280;52677;50.898;10.854;2023-12-07T00:57:20;98606.09;;;0.64;100.00
65897;BME280;52677;50.898;10.854;2023-12-07T00:59:20;98598.25;;;0.63;100.00
65897;BME280;52677;50.898;10.854;2023-12-07T01:01:21;98611.84;;;0.63;100.00
65897;BME280;52677;50.898;10.854;2023-12-07T01:03:21;98618.09;;;0.63;100.00
65897;BME280;52677;50.898;10.854;2023-12-07T01:05:21;98621.94;;;0.62;100.00
65897;BME280;52677;50.898;10.854;2023-12-07T01:07:22;98627.88;;;0.64;100.00
65897;BME280;52677;50.898;10.854;2023-12-07T01:09:22;98631.28;;;0.70;100.00
65897;BME280;52677;50.898;10.854;2023-12-07T01:11:23;98631.66;;;0.77;100.00
65897;BME280;52677;50.898;10.854;2023-12-07T01:13:23;98640.66;;;0.77;100.00
65897;BME280;52677;50.898;10.854;2023-12-07T01:15:23;98641.50;;;0.87;100.00
65897;BME280;52677;50.898;10.854;2023-12-07T01:17:24;98636.53;;;0.89;100.00
65897;BME280;52677;50.898;10.854;2023-12-07T01:19:24;98638.63;;;0.83;100.00
65897;BME280;52677;50.898;10.854;2023-12-07T01:21:25;98638.28;;;0.84;100.00
65897;BME280;52677;50.898;10.854;2023-12-07T01:23:25;98635.69;;;0.79;100.00
65897;BME280;52677;50.898;10.854;2023-12-07T01:25:26;98639.63;;;0.73;100.00
65897;BME280;52677;50.898;10.854;2023-12-07T01:27:26;98639.25;;;0.66;100.00
65897;BME280;52677;50.898;10.854;2023-12-07T01:29:26;98636.06;;;0.64;100.00
65897;BME280;52677;50.898;10.854;2023-12-07T01:31:27;98640.28;;;0.70;100.00
65897;BME280;52677;50.898;10.854;2023-12-07T01:33:27;98649.72;;;0.73;100.00
65897;BME280;52677;50.898;10.854;2023-12-07T01:35:27;98647.31;;;0.71;100.00
65897;BME280;52677;50.898;10.854;2023-12-07T01:37:28;98653.41;;;0.68;100.00
65897;BME280;52677;50.898;10.854;2023-12-07T01:39:30;98651.66;;;0.72;100.00
65897;BME280;52677;50.898;10.854;2023-12-07T01:41:31;98657.72;;;0.69;100.00
65897;BME280;52677;50.898;10.854;2023-12-07T01:43:31;98658.16;;;0.63;100.00
65897;BME280;52677;50.898;10.854;2023-12-07T01:45:31;98673.69;;;0.62;100.00
65897;BME280;52677;50.898;10.854;2023-12-07T01:47:33;98666.81;;;0.65;100.00
65897;BME280;52677;50.898;10.854;2023-12-07T01:49:35;98665.03;;;0.60;100.00
65897;BME280;52677;50.898;10.854;2023-12-07T01:51:36;98668.88;;;0.59;100.00
65897;BME280;52677;50.898;10.854;2023-12-07T01:53:39;98664.22;;;0.60;100.00
65897;BME280;52677;50.898;10.854;2023-12-07T01:55:39;98668.66;;;0.55;100.00
65897;BME280;52677;50.898;10.854;2023-12-07T01:57:41;98675.13;;;0.60;100.00
65897;BME280;52677;50.898;10.854;2023-12-07T01:59:43;98680.34;;;0.56;100.00
65897;BME280;52677;50.898;10.854;2023-12-07T02:01:43;98670.66;;;0.64;100.00
65897;BME280;52677;50.898;10.854;2023-12-07T02:03:44;98673.06;;;0.65;100.00
65897;BME280;52677;50.898;10.854;2023-12-07T02:05:47;98671.53;;;0.73;100.00
65897;BME280;52677;50.898;10.854;2023-12-07T02:07:48;98675.50;;;0.67;100.00
65897;BME280;52677;50.898;10.854;2023-12-07T02:09:49;98683.16;;;0.65;100.00
65897;BME280;52677;50.898;10.854;2023-12-07T02:11:49;98681.22;;;0.65;100.00
65897;BME280;52677;50.898;10.854;2023-12-07T02:13:50;98682.34;;;0.64;100.00
65897;BME280;52677;50.898;10.854;2023-12-07T02:15:55;98678.72;;;0.69;100.00
65897;BME280;52677;50.898;10.854;2023-12-07T02:18:06;98683.03;;;0.70;100.00
65897;BME280;52677;50.898;10.854;2023-12-07T02:20:16;98682.84;;;0.66;100.00
65897;BME280;52677;50.898;10.854;2023-12-07T02:22:27;98676.78;;;0.69;100.00
65897;BME280;52677;50.898;10.854;2023-12-07T02:24:33;98679.31;;;0.66;100.00
65897;BME280;52677;50.898;10.854;2023-12-07T02:26:38;98688.00;;;0.68;100.00
65897;BME280;52677;50.898;10.854;2023-12-07T02:28:41;98686.75;;;0.74;100.00
65897;BME280;52677;50.898;10.854;2023-12-07T02:30:41;98687.38;;;0.71;100.00
65897;BME280;52677;50.898;10.854;2023-12-07T02:32:44;98692.81;;;0.71;100.00
65897;BME280;52677;50.898;10.854;2023-12-07T02:34:45;98701.38;;;0.78;100.00
65897;BME280;52677;50.898;10.854;2023-12-07T02:36:46;98686.75;;;0.74;100.00
65897;BME280;52677;50.898;10.854;2023-12-07T02:38:49;98700.59;;;0.64;100.00
65897;BME280;52677;50.898;10.854;2023-12-07T02:40:51;98699.63;;;0.60;100.00
65897;BME280;52677;50.898;10.854;2023-12-07T02:42:54;98693.66;;;0.57;100.00
65897;BME280;52677;50.898;10.854;2023-12-07T02:44:54;98694.09;;;0.51;100.00
65897;BME280;52677;50.898;10.854;2023-12-07T02:46:55;98698.75;;;0.50;100.00
65897;BME280;52677;50.898;10.854;2023-12-07T02:48:57;98687.31;;;0.48;100.00
65897;BME280;52677;50.898;10.854;2023-12-07T02:50:57;98690.38;;;0.47;100.00
65897;BME280;52677;50.898;10.854;2023-12-07T02:52:57;98686.66;;;0.43;100.00
65897;BME280;52677;50.898;10.854;2023-12-07T02:54:58;98685.53;;;0.44;100.00
65897;BME280;52677;50.898;10.854;2023-12-07T02:56:58;98689.66;;;0.41;100.00
65897;BME280;52677;50.898;10.854;2023-12-07T02:58:58;98685.63;;;0.39;100.00
65897;BME280;52677;50.898;10.854;2023-12-07T03:00:59;98702.78;;;0.39;100.00
65897;BME280;52677;50.898;10.854;2023-12-07T03:02:59;98704.91;;;0.42;100.00
65897;BME280;52677;50.898;10.854;2023-12-07T03:04:59;98708.72;;;0.41;100.00
65897;BME280;52677;50.898;10.854;2023-12-07T03:06:59;98703.91;;;0.38;100.00
65897;BME280;52677;50.898;10.854;2023-12-07T03:09:00;98705.50;;;0.39;100.00
65897;BME280;52677;50.898;10.854;2023-12-07T03:11:00;98704.38;;;0.40;100.00
65897;BME280;52677;50.898;10.854;2023-12-07T03:13:00;98708.53;;;0.38;100.00
65897;BME280;52677;50.898;10.854;2023-12-07T03:15:01;98713.16;;;0.37;100.00
65897;BME280;52677;50.898;10.854;2023-12-07T03:17:01;98708.03;;;0.36;100.00
65897;BME280;52677;50.898;10.854;2023-12-07T03:19:01;98712.69;;;0.35;100.00
65897;BME280;52677;50.898;10.854;2023-12-07T03:21:02;98709.66;;;0.37;100.00
65897;BME280;52677;50.898;10.854;2023-12-07T03:23:03;98708.03;;;0.36;100.00
65897;BME280;52677;50.898;10.854;2023-12-07T03:25:04;98709.66;;;0.37;100.00
65897;BME280;52677;50.898;10.854;2023-12-07T03:27:05;98711.88;;;0.35;100.00
65897;BME280;52677;50.898;10.854;2023-12-07T03:29:05;98705.63;;;0.34;100.00
65897;BME280;52677;50.898;10.854;2023-12-07T03:31:05;98708.63;;;0.33;100.00
65897;BME280;52677;50.898;10.854;2023-12-07T03:33:06;98712.16;;;0.33;100.00
65897;BME280;52677;50.898;10.854;2023-12-07T03:35:06;98716.78;;;0.33;100.00
65897;BME280;52677;50.898;10.854;2023-12-07T03:37:07;98710.84;;;0.31;100.00
65897;BME280;52677;50.898;10.854;2023-12-07T03:39:07;98717.41;;;0.30;100.00
65897;BME280;52677;50.898;10.854;2023-12-07T03:41:07;98719.03;;;0.31;100.00
65897;BME280;52677;50.898;10.854;2023-12-07T03:43:08;98720.84;;;0.35;100.00
65897;BME280;52677;50.898;10.854;2023-12-07T03:45:08;98721.66;;;0.36;100.00
65897;BME280;52677;50.898;10.854;2023-12-07T03:47:09;98724.38;;;0.36;100.00
65897;BME280;52677;50.898;10.854;2023-12-07T03:49:09;98720.03;;;0.35;100.00
65897;BME280;52677;50.898;10.854;2023-12-07T03:51:13;98724.69;;;0.34;100.00
65897;BME280;52677;50.898;10.854;2023-12-07T03:53:13;98729.31;;;0.34;100.00
65897;BME280;52677;50.898;10.854;2023-12-07T03:55:13;98724.69;;;0.34;100.00
65897;BME280;52677;50.898;10.854;2023-12-07T03:57:14;98725.28;;;0.31;100.00
65897;BME280;52677;50.898;10.854;2023-12-07T03:59:14;98731.53;;;0.32;100.00
65897;BME280;52677;50.898;10.854;2023-12-07T04:01:15;98734.56;;;0.30;100.00
65897;BME280;52677;50.898;10.854;2023-12-07T04:03:15;98734.25;;;0.32;100.00
65897;BME280;52677;50.898;10.854;2023-12-07T04:05:16;98736.47;;;0.30;100.00
65897;BME280;52677;50.898;10.854;2023-12-07T04:07:16;98738.06;;;0.31;100.00
65897;BME280;52677;50.898;10.854;2023-12-07T04:09:16;98741.09;;;0.29;100.00
65897;BME280;52677;50.898;10.854;2023-12-07T04:11:17;98739.19;;;0.30;100.00
65897;BME280;52677;50.898;10.854;2023-12-07T04:13:17;98739.69;;;0.32;100.00
65897;BME280;52677;50.898;10.854;2023-12-07T04:15:19;98744.00;;;0.33;100.00
65897;BME280;52677;50.898;10.854;2023-12-07T04:17:20;98738.06;;;0.31;100.00
65897;BME280;52677;50.898;10.854;2023-12-07T04:19:21;98750.25;;;0.33;100.00
65897;BME280;52677;50.898;10.854;2023-12-07T04:21:21;98739.19;;;0.30;100.00
65897;BME280;52677;50.898;10.854;2023-12-07T04:23:22;98740.00;;;0.30;100.00
65897;BME280;52677;50.898;10.854;2023-12-07T04:25:22;98737.59;;;0.28;100.00
65897;BME280;52677;50.898;10.854;2023-12-07T04:27:23;98747.03;;;0.31;100.00
65897;BME280;52677;50.898;10.854;2023-12-07T04:29:23;98741.09;;;0.29;100.00
65897;BME280;52677;50.898;10.854;2023-12-07T04:31:23;98748.97;;;0.31;100.00
65897;BME280;52677;50.898;10.854;2023-12-07T04:33:24;98744.94;;;0.28;100.00
65897;BME280;52677;50.898;10.854;2023-12-07T04:35:24;98741.09;;;0.29;100.00
65897;BME280;52677;50.898;10.854;2023-12-07T04:37:24;98742.41;;;0.32;100.00
65897;BME280;52677;50.898;10.854;2023-12-07T04:39:25;98749.78;;;0.31;100.00
65897;BME280;52677;50.898;10.854;2023-12-07T04:41:25;98749.28;;;0.29;100.00
65897;BME280;52677;50.898;10.854;2023-12-07T04:43:25;98752.00;;;0.29;100.00
65897;BME280;52677;50.898;10.854;2023-12-07T04:45:26;98752.00;;;0.29;100.00
65897;BME280;52677;50.898;10.854;2023-12-07T04:47:26;98750.88;;;0.30;100.00
65897;BME280;52677;50.898;10.854;2023-12-07T04:49:26;98756.31;;;0.30;100.00
65897;BME280;52677;50.898;10.854;2023-12-07T04:51:27;98757.44;;;0.29;100.00
65897;BME280;52677;50.898;10.854;2023-12-07T04:53:27;98759.66;;;0.27;100.00
65897;BME280;52677;50.898;10.854;2023-12-07T04:55:27;98761.38;;;0.37;100.00
65897;BME280;52677;50.898;10.854;2023-12-07T04:57:28;98762.16;;;0.37;100.00
65897;BME280;52677;50.898;10.854;2023-12-07T04:59:28;98760.56;;;0.36;100.00
65897;BME280;52677;50.898;10.854;2023-12-07T05:01:28;98769.53;;;0.37;100.00
65897;BME280;52677;50.898;10.854;2023-12-07T05:03:29;98766.50;;;0.38;100.00
65897;BME280;52677;50.898;10.854;2023-12-07T05:05:29;98765.88;;;0.41;100.00
65897;BME280;52677;50.898;10.854;2023-12-07T05:07:29;98757.22;;;0.39;100.00
65897;BME280;52677;50.898;10.854;2023-12-07T05:09:30;98761.06;;;0.38;100.00
65897;BME280;52677;50.898;10.854;2023-12-07T05:11:31;98759.25;;;0.34;100.00
65897;BME280;52677;50.898;10.854;2023-12-07T05:13:31;98759.34;;;0.28;100.00
65897;BME280;52677;50.898;10.854;2023-12-07T05:15:33;98761.59;;;0.26;100.00
65897;BME280;52677;50.898;10.854;2023-12-07T05:17:34;98755.91;;;0.23;100.00
65897;BME280;52677;50.898;10.854;2023-12-07T05:19:34;98765.19;;;0.22;100.00
65897;BME280;52677;50.898;10.854;2023-12-07T05:21:35;98761.47;;;0.18;100.00
65897;BME280;52677;50.898;10.854;2023-12-07T05:23:35;98759.88;;;0.17;100.00
65897;BME280;52677;50.898;10.854;2023-12-07T05:25:36;98753.31;;;0.18;100.00
65897;BME280;52677;50.898;10.854;2023-12-07T05:27:36;98756.31;;;0.16;100.00
65897;BME280;52677;50.898;10.854;2023-12-07T05:29:37;98754.72;;;0.15;100.00
65897;BME280;52677;50.898;10.854;2023-12-07T05:31:37;98762.59;;;0.17;100.00
65897;BME280;52677;50.898;10.854;2023-12-07T05:33:37;98764.78;;;0.15;100.00
65897;BME280;52677;50.898;10.854;2023-12-07T05:35:38;98760.47;;;0.14;100.00
65897;BME280;52677;50.898;10.854;2023-12-07T05:37:38;98754.44;;;0.17;100.00
65897;BME280;52677;50.898;10.854;2023-12-07T05:39:39;98762.38;;;0.13;100.00
65897;BME280;52677;50.898;10.854;2023-12-07T05:41:39;98759.66;;;0.13;100.00
65897;BME280;52677;50.898;10.854;2023-12-07T05:43:41;98768.94;;;0.12;100.00
65897;BME280;52677;50.898;10.854;2023-12-07T05:45:42;98763.50;;;0.12;100.00
65897;BME280;52677;50.898;10.854;2023-12-07T05:47:42;98765.72;;;0.10;100.00
65897;BME280;52677;50.898;10.854;2023-12-07T05:49:42;98763.81;;;0.11;100.00
65897;BME280;52677;50.898;10.854;2023-12-07T05:51:43;98767.63;;;0.10;100.00
65897;BME280;52677;50.898;10.854;2023-12-07T05:53:43;98771.97;;;0.11;100.00
65897;BME280;52677;50.898;10.854;2023-12-07T05:55:44;98762.19;;;0.10;100.00
65897;BME280;52677;50.898;10.854;2023-12-07T05:57:45;98774.38;;;0.12;100.00
65897;BME280;52677;50.898;10.854;2023-12-07T05:59:46;98771.66;;;0.12;100.00
65897;BME280;52677;50.898;10.854;2023-12-07T06:01:46;98762.69;;;0.12;100.00
65897;BME280;52677;50.898;10.854;2023-12-07T06:03:47;98770.84;;;0.12;100.00
65897;BME280;52677;50.898;10.854;2023-12-07T06:05:47;98772.66;;;0.16;100.00
65897;BME280;52677;50.898;10.854;2023-12-07T06:07:47;98759.03;;;0.16;100.00
65897;BME280;52677;50.898;10.854;2023-12-07T06:09:48;98762.28;;;0.18;100.00
65897;BME280;52677;50.898;10.854;2023-12-07T06:11:48;98763.41;;;0.17;100.00
65897;BME280;52677;50.898;10.854;2023-12-07T06:13:49;98763.69;;;0.16;100.00
65897;BME280;52677;50.898;10.854;2023-12-07T06:15:49;98763.41;;;0.17;100.00
65897;BME280;52677;50.898;10.854;2023-12-07T06:17:49;98767.19;;;0.16;100.00
65897;BME280;52677;50.898;10.854;2023-12-07T06:19:50;98764.47;;;0.16;100.00
65897;BME280;52677;50.898;10.854;2023-12-07T06:21:50;98772.38;;;0.18;100.00
65897;BME280;52677;50.898;10.854;2023-12-07T06:23:50;98769.13;;;0.16;100.00
65897;BME280;52677;50.898;10.854;2023-12-07T06:25:51;98766.72;;;0.14;100.00
65897;BME280;52677;50.898;10.854;2023-12-07T06:27:51;98771.34;;;0.14;100.00
65897;BME280;52677;50.898;10.854;2023-12-07T06:29:51;98775.69;;;0.15;100.00
65897;BME280;52677;50.898;10.854;2023-12-07T06:31:52;98775.97;;;0.13;100.00
65897;BME280;52677;50.898;10.854;2023-12-07T06:33:52;98780.63;;;0.13;100.00
65897;BME280;52677;50.898;10.854;2023-12-07T06:35:52;98778.94;;;0.17;100.00
65897;BME280;52677;50.898;10.854;2023-12-07T06:37:53;98787.88;;;0.17;100.00
65897;BME280;52677;50.898;10.854;2023-12-07T06:39:53;98794.94;;;0.18;100.00
65897;BME280;52677;50.898;10.854;2023-12-07T06:41:53;98787.09;;;0.17;100.00
65897;BME280;52677;50.898;10.854;2023-12-07T06:43:55;98804.72;;;0.19;100.00
65897;BME280;52677;50.898;10.854;2023-12-07T06:45:55;98809.03;;;0.20;100.00
65897;BME280;52677;50.898;10.854;2023-12-07T06:47:56;98805.53;;;0.20;100.00
65897;BME280;52677;50.898;10.854;2023-12-07T06:49:57;98807.94;;;0.21;100.00
65897;BME280;52677;50.898;10.854;2023-12-07T06:51:57;98805.53;;;0.20;100.00
65897;BME280;52677;50.898;10.854;2023-12-07T06:53:57;98802.19;;;0.23;100.00
65897;BME280;52677;50.898;10.854;2023-12-07T06:55:58;98818.19;;;0.24;100.00
65897;BME280;52677;50.898;10.854;2023-12-07T06:57:58;98814.41;;;0.25;100.00
65897;BME280;52677;50.898;10.854;2023-12-07T06:59:58;98812.06;;;0.33;100.00
65897;BME280;52677;50.898;10.854;2023-12-07T07:01:59;98820.53;;;0.31;100.00
65897;BME280;52677;50.898;10.854;2023-12-07T07:03:59;98814.28;;;0.31;100.00
65897;BME280;52677;50.898;10.854;2023-12-07T07:06:00;98826.78;;;0.32;100.00
65897;BME280;52677;50.898;10.854;2023-12-07T07:08:00;98812.06;;;0.33;100.00
65897;BME280;52677;50.898;10.854;2023-12-07T07:10:01;98825.97;;;0.31;100.00
65897;BME280;52677;50.898;10.854;2023-12-07T07:12:01;98825.38;;;0.34;100.00
65897;BME280;52677;50.898;10.854;2023-12-07T07:14:02;98821.25;;;0.37;100.00
65897;BME280;52677;50.898;10.854;2023-12-07T07:16:02;98832.44;;;0.35;100.00
65897;BME280;52677;50.898;10.854;2023-12-07T07:18:03;98835.16;;;0.35;100.00
65897;BME280;52677;50.898;10.854;2023-12-07T07:20:03;98824.88;;;0.32;100.00
65897;BME280;52677;50.898;10.854;2023-12-07T07:22:04;98832.53;;;0.30;100.00
65897;BME280;52677;50.898;10.854;2023-12-07T07:24:05;98835.25;;;0.30;100.00
65897;BME280;52677;50.898;10.854;2023-12-07T07:26:05;98829.50;;;0.32;100.00
65897;BME280;52677;50.898;10.854;2023-12-07T07:28:06;98837.66;;;0.32;100.00
65897;BME280;52677;50.898;10.854;2023-12-07T07:30:07;98843.41;;;0.30;100.00
65897;BME280;52677;50.898;10.854;2023-12-07T07:32:08;98841.50;;;0.31;100.00
65897;BME280;52677;50.898;10.854;2023-12-07T07:34:08;98843.41;;;0.30;100.00
65897;BME280;52677;50.898;10.854;2023-12-07T07:36:09;98848.84;;;0.30;100.00
65897;BME280;52677;50.898;10.854;2023-12-07T07:38:09;98844.22;;;0.31;100.00
65897;BME280;52677;50.898;10.854;2023-12-07T07:40:11;98853.50;;;0.30;100.00
65897;BME280;52677;50.898;10.854;2023-12-07T07:42:11;98846.94;;;0.31;100.00
65897;BME280;52677;50.898;10.854;2023-12-07T07:44:12;98853.19;;;0.31;100.00
65897;BME280;52677;50.898;10.854;2023-12-07T07:46:12;98848.56;;;0.32;100.00
65897;BME280;52677;50.898;10.854;2023-12-07T07:48:12;98852.38;;;0.31;100.00
65897;BME280;52677;50.898;10.854;2023-12-07T07:50:13;98850.47;;;0.31;100.00
65897;BME280;52677;50.898;10.854;2023-12-07T07:52:13;98849.88;;;0.34;100.00
65897;BME280;52677;50.898;10.854;2023-12-07T07:54:13;98849.56;;;0.36;100.00
65897;BME280;52677;50.898;10.854;2023-12-07T07:56:14;98846.84;;;0.36;100.00
65897;BME280;52677;50.898;10.854;2023-12-07T07:58:14;98852.19;;;0.41;100.00
65897;BME280;52677;50.898;10.854;2023-12-07T08:00:15;98847.53;;;0.41;100.00
65897;BME280;52677;50.898;10.854;2023-12-07T08:02:15;98852.50;;;0.39;100.00
65897;BME280;52677;50.898;10.854;2023-12-07T08:04:15;98837.88;;;0.35;100.00
65897;BME280;52677;50.898;10.854;2023-12-07T08:06:16;98850.56;;;0.40;100.00
65897;BME280;52677;50.898;10.854;2023-12-07T08:08:16;98849.78;;;0.39;100.00
65897;BME280;52677;50.898;10.854;2023-12-07T08:10:17;98848.06;;;0.43;100.00
65897;BME280;52677;50.898;10.854;2023-12-07T08:12:17;98839.28;;;0.46;100.00
65897;BME280;52677;50.898;10.854;2023-12-07T08:14:17;98852.91;;;0.46;100.00
65897;BME280;52677;50.898;10.854;2023-12-07T08:16:18;98855.94;;;0.45;100.00
65897;BME280;52677;50.898;10.854;2023-12-07T08:18:19;98858.66;;;0.45;100.00
65897;BME280;52677;50.898;10.854;2023-12-07T08:20:19;98866.81;;;0.45;100.00
65897;BME280;52677;50.898;10.854;2023-12-07T08:22:19;98870.84;;;0.47;100.00
65897;BME280;52677;50.898;10.854;2023-12-07T08:24:20;98860.25;;;0.46;100.00
65897;BME280;52677;50.898;10.854;2023-12-07T08:26:21;98867.81;;;0.49;100.00
65897;BME280;52677;50.898;10.854;2023-12-07T08:28:21;98865.91;;;0.49;100.00
65897;BME280;52677;50.898;10.854;2023-12-07T08:30:22;98869.16;;;0.51;100.00
65897;BME280;52677;50.898;10.854;2023-12-07T08:32:22;98870.53;;;0.49;100.00
65897;BME280;52677;50.898;10.854;2023-12-07T08:34:25;98868.34;;;0.51;100.00
65897;BME280;52677;50.898;10.854;2023-12-07T08:36:26;98875.19;;;0.48;100.00
65897;BME280;52677;50.898;10.854;2023-12-07T08:38:27;98868.84;;;0.53;100.00
65897;BME280;52677;50.898;10.854;2023-12-07T08:40:27;98867.22;;;0.52;100.00
65897;BME280;52677;50.898;10.854;2023-12-07T08:42:27;98883.75;;;0.55;100.00
65897;BME280;52677;50.898;10.854;2023-12-07T08:44:28;98881.03;;;0.55;100.00
65897;BME280;52677;50.898;10.854;2023-12-07T08:46:28;98877.72;;;0.59;100.00
65897;BME280;52677;50.898;10.854;2023-12-07T08:48:29;98872.56;;;0.57;100.00
65897;BME280;52677;50.898;10.854;2023-12-07T08:50:29;98877.72;;;0.59;100.00
65897;BME280;52677;50.898;10.854;2023-12-07T08:52:30;98868.94;;;0.62;100.00
65897;BME280;52677;50.898;10.854;2023-12-07T08:54:30;98871.75;;;0.70;100.00
65897;BME280;52677;50.898;10.854;2023-12-07T08:56:30;98873.19;;;0.68;100.00
65897;BME280;52677;50.898;10.854;2023-12-07T08:58:31;98866.00;;;0.72;100.00
65897;BME280;52677;50.898;10.854;2023-12-07T09:00:32;98877.22;;;0.70;100.00
65897;BME280;52677;50.898;10.854;2023-12-07T09:02:32;98873.19;;;0.68;100.00
65897;BME280;52677;50.898;10.854;2023-12-07T09:04:33;98868.41;;;0.73;100.00
65897;BME280;52677;50.898;10.854;2023-12-07T09:06:33;98874.16;;;0.72;100.00
65897;BME280;52677;50.898;10.854;2023-12-07T09:08:33;98873.06;;;0.73;100.00
65897;BME280;52677;50.898;10.854;2023-12-07T09:10:34;98871.13;;;0.73;100.00
65897;BME280;52677;50.898;10.854;2023-12-07T09:12:34;98871.75;;;0.70;100.00
65897;BME280;52677;50.898;10.854;2023-12-07T09:14:36;98874.97;;;0.72;100.00
65897;BME280;52677;50.898;10.854;2023-12-07T09:16:43;98874.97;;;0.72;100.00
65897;BME280;52677;50.898;10.854;2023-12-07T09:18:43;98878.09;;;0.79;100.00
65897;BME280;52677;50.898;10.854;2023-12-07T09:20:46;98875.38;;;0.79;100.00
65897;BME280;52677;50.898;10.854;2023-12-07T09:22:47;98878.41;;;0.78;100.00
65897;BME280;52677;50.898;10.854;2023-12-07T09:24:48;98881.94;;;0.78;100.00
65897;BME280;52677;50.898;10.854;2023-12-07T09:26:48;98881.03;;;0.83;100.00
65897;BME280;52677;50.898;10.854;2023-12-07T09:28:49;98881.03;;;0.83;100.00
65897;BME280;52677;50.898;10.854;2023-12-07T09:30:49;98872.34;;;0.81;100.00
65897;BME280;52677;50.898;10.854;2023-12-07T09:32:49;98875.97;;;0.90;100.00
65897;BME280;52677;50.898;10.854;2023-12-07T09:34:50;98872.34;;;0.95;100.00
65897;BME280;52677;50.898;10.854;2023-12-07T09:37:05;98875.56;;;0.97;100.00
65897;BME280;52677;50.898;10.854;2023-12-07T09:39:06;98872.84;;;0.97;100.00
65897;BME280;52677;50.898;10.854;2023-12-07T09:41:06;98869.31;;;0.96;100.00
65897;BME280;52677;50.898;10.854;2023-12-07T09:43:07;98872.03;;;0.96;100.00
65897;BME280;52677;50.898;10.854;2023-12-07T09:45:08;98876.69;;;0.96;100.00
65897;BME280;52677;50.898;10.854;2023-12-07T09:47:09;98875.38;;;0.93;100.00
65897;BME280;52677;50.898;10.854;2023-12-07T09:49:12;98871.03;;;0.92;100.00
65897;BME280;52677;50.898;10.854;2023-12-07T09:51:13;98872.16;;;0.91;100.00
65897;BME280;52677;50.898;10.854;2023-12-07T09:53:15;98869.63;;;0.95;100.00
65897;BME280;52677;50.898;10.854;2023-12-07T09:55:18;98869.78;;;0.98;100.00
65897;BME280;52677;50.898;10.854;2023-12-07T09:57:19;98874.97;;;1.00;100.00
65897;BME280;52677;50.898;10.854;2023-12-07T09:59:19;98876.56;;;1.01;100.00
65897;BME280;52677;50.898;10.854;2023-12-07T10:01:19;98859.91;;;1.02;100.00
65897;BME280;52677;50.898;10.854;2023-12-07T10:03:21;98864.06;;;1.00;100.00
65897;BME280;52677;50.898;10.854;2023-12-07T10:05:24;98873.53;;;1.02;100.00
65897;BME280;52677;50.898;10.854;2023-12-07T10:07:33;98861.44;;;1.08;100.00
65897;BME280;52677;50.898;10.854;2023-12-07T10:09:43;98870.28;;;1.14;100.00
65897;BME280;52677;50.898;10.854;2023-12-07T10:11:43;98866.44;;;1.15;100.00
65897;BME280;52677;50.898;10.854;2023-12-07T10:13:44;98871.88;;;1.15;100.00
65897;BME280;52677;50.898;10.854;2023-12-07T10:15:44;98869.97;;;1.16;100.00
65897;BME280;52677;50.898;10.854;2023-12-07T10:17:48;98877.34;;;1.15;100.00
65897;BME280;52677;50.898;10.854;2023-12-07T10:20:10;98874.69;;;1.24;100.00
65897;BME280;52677;50.898;10.854;2023-12-07T10:22:15;98875.00;;;1.22;100.00
65897;BME280;52677;50.898;10.854;2023-12-07T10:24:17;98866.50;;;1.24;100.00
65897;BME280;52677;50.898;10.854;2023-12-07T10:26:18;98872.47;;;1.26;100.00
65897;BME280;52677;50.898;10.854;2023-12-07T10:28:19;98866.72;;;1.27;100.00
65897;BME280;52677;50.898;10.854;2023-12-07T10:30:21;98861.91;;;1.24;100.00
65897;BME280;52677;50.898;10.854;2023-12-07T10:32:26;98861.59;;;1.26;100.00